createdAt,value
2022-12-12T00:01:54.771Z,99357.22
2022-12-12T00:04:43.201Z,99364.84
2022-12-12T00:07:31.591Z,99364.03
2022-12-12T00:10:20.149Z,99364.94
2022-12-12T00:13:08.575Z,99363.28
2022-12-12T00:15:58.422Z,99360.81
2022-12-12T00:18:46.970Z,99355.75
2022-12-12T00:21:35.376Z,99354.09
2022-12-12T00:24:23.843Z,99359.19
2022-12-12T00:27:12.251Z,99359.19
2022-12-12T00:30:00.696Z,99359.25
2022-12-12T00:32:50.421Z,99362.63
2022-12-12T00:35:38.842Z,99361.81
2022-12-12T00:38:27.626Z,99361.84
2022-12-12T00:41:16.186Z,99368.63
2022-12-12T00:44:04.621Z,99361.88
2022-12-12T00:46:53.077Z,99358.47
2022-12-12T00:49:42.867Z,99366.94
2022-12-12T00:52:31.934Z,99371.97
2022-12-12T00:55:20.900Z,99360.06
2022-12-12T00:58:09.381Z,99370.19
2022-12-12T01:01:06.092Z,99366.81
2022-12-12T01:03:54.843Z,99371.00
2022-12-12T01:06:44.579Z,99366.75
2022-12-12T01:09:34.182Z,99365.91
2022-12-12T01:12:22.599Z,99374.34
2022-12-12T01:15:12.790Z,99375.19
2022-12-12T01:18:01.337Z,99379.38
2022-12-12T01:20:49.774Z,99376.00
2022-12-12T01:23:39.619Z,99382.75
2022-12-12T01:26:28.091Z,99393.75
2022-12-12T01:29:16.559Z,99384.44
2022-12-12T01:32:05.329Z,99389.44
2022-12-12T01:34:53.740Z,99387.75
2022-12-12T01:37:42.302Z,99386.91
2022-12-12T01:40:32.143Z,99391.97
2022-12-12T01:43:21.712Z,99388.63
2022-12-12T01:46:44.511Z,99381.88
2022-12-12T01:49:34.401Z,99388.69
2022-12-12T01:52:24.482Z,99385.34
2022-12-12T01:55:16.798Z,99402.28
2022-12-12T01:58:06.581Z,99407.38
2022-12-12T02:00:55.022Z,99405.66
2022-12-12T02:03:43.553Z,99405.59
2022-12-12T02:06:32.663Z,99407.28
2022-12-12T02:09:21.154Z,99400.53
2022-12-12T02:12:12.784Z,99401.38
2022-12-12T02:15:06.855Z,99400.53
2022-12-12T02:18:03.644Z,99406.47
2022-12-12T02:21:02.909Z,99402.22
2022-12-12T02:24:46.222Z,99411.63
2022-12-12T02:27:55.579Z,99413.28
2022-12-12T02:30:56.027Z,99412.44
2022-12-12T02:33:50.364Z,99407.38
2022-12-12T02:36:44.963Z,99410.72
2022-12-12T02:39:38.742Z,99415.81
2022-12-12T02:42:29.893Z,99418.31
2022-12-12T02:45:21.438Z,99411.63
2022-12-12T02:48:15.933Z,99420.91
2022-12-12T02:51:05.875Z,99416.66
2022-12-12T02:53:54.873Z,99423.47
2022-12-12T02:56:50.149Z,99423.50
2022-12-12T02:59:40.767Z,99419.25
2022-12-12T03:03:16.478Z,99420.97
2022-12-12T03:06:40.885Z,99424.38
2022-12-12T03:09:35.905Z,99431.19
2022-12-12T03:12:27.282Z,99427.78
2022-12-12T03:15:17.846Z,99421.03
2022-12-12T03:18:12.066Z,99411.72
2022-12-12T03:21:04.026Z,99417.59
2022-12-12T03:23:56.711Z,99419.28
2022-12-12T03:26:48.043Z,99418.41
2022-12-12T03:29:40.415Z,99431.97
2022-12-12T03:32:34.471Z,99422.63
2022-12-12T03:35:26.953Z,99413.41
2022-12-12T03:38:18.308Z,99417.63
2022-12-12T03:41:10.950Z,99420.09
2022-12-12T03:44:01.867Z,99420.09
2022-12-12T03:46:52.846Z,99416.69
2022-12-12T03:49:44.414Z,99420.09
2022-12-12T03:52:35.995Z,99422.63
2022-12-12T03:55:27.765Z,99417.56
2022-12-12T03:58:21.138Z,99414.19
2022-12-12T04:01:11.999Z,99420.91
2022-12-12T04:04:02.594Z,99421.78
2022-12-12T04:06:54.161Z,99421.78
2022-12-12T04:10:11.740Z,99423.50
2022-12-12T04:13:07.692Z,99416.72
2022-12-12T04:16:02.258Z,99417.63
2022-12-12T04:18:53.301Z,99415.91
2022-12-12T04:22:01.420Z,99409.94
2022-12-12T04:24:51.813Z,99420.97
2022-12-12T04:27:42.413Z,99420.97
2022-12-12T04:30:30.784Z,99419.28
2022-12-12T04:33:20.590Z,99427.03
2022-12-12T04:36:09.957Z,99417.84
2022-12-12T04:38:58.369Z,99431.34
2022-12-12T04:41:47.291Z,99433.06
2022-12-12T04:44:36.533Z,99428.75
2022-12-12T04:47:24.990Z,99436.31
2022-12-12T04:50:14.766Z,99432.03
2022-12-12T04:53:05.581Z,99424.41
2022-12-12T04:55:56.372Z,99432.88
2022-12-12T04:58:44.977Z,99435.38
2022-12-12T05:01:39.124Z,99445.50
2022-12-12T05:04:31.160Z,99434.50
2022-12-12T05:07:26.529Z,99437.88
2022-12-12T05:10:16.359Z,99442.13
2022-12-12T05:13:04.973Z,99446.31
2022-12-12T05:15:55.277Z,99454.81
2022-12-12T05:18:43.660Z,99454.06
2022-12-12T05:21:32.116Z,99440.63
2022-12-12T05:24:21.903Z,99453.31
2022-12-12T05:27:11.911Z,99449.97
2022-12-12T05:30:00.354Z,99442.41
2022-12-12T05:32:48.817Z,99449.13
2022-12-12T05:35:37.378Z,99455.88
2022-12-12T05:38:25.759Z,99455.03
2022-12-12T05:41:15.596Z,99450.84
2022-12-12T05:44:03.984Z,99455.88
2022-12-12T05:46:52.411Z,99460.13
2022-12-12T05:49:40.859Z,99461.78
2022-12-12T05:52:29.245Z,99464.38
2022-12-12T05:55:17.843Z,99461.00
2022-12-12T05:58:07.644Z,99457.59
2022-12-12T06:01:00.055Z,99464.38
2022-12-12T06:03:51.648Z,99467.78
2022-12-12T06:06:40.052Z,99471.19
2022-12-12T06:09:28.794Z,99477.06
2022-12-12T06:12:17.191Z,99473.63
2022-12-12T06:15:08.333Z,99478.72
2022-12-12T06:17:58.505Z,99481.25
2022-12-12T06:20:46.905Z,99484.63
2022-12-12T06:23:37.757Z,99482.09
2022-12-12T06:26:26.205Z,99486.28
2022-12-12T06:29:15.614Z,99490.47
2022-12-12T06:32:06.452Z,99487.09
2022-12-12T06:34:54.904Z,99487.94
2022-12-12T06:37:43.296Z,99489.63
2022-12-12T06:40:31.696Z,99490.41
2022-12-12T06:43:20.149Z,99492.13
2022-12-12T06:46:10.687Z,99497.19
2022-12-12T06:49:00.576Z,99497.25
2022-12-12T06:51:49.203Z,99491.38
2022-12-12T06:54:37.724Z,99498.22
2022-12-12T06:57:26.279Z,99502.44
2022-12-12T07:00:16.490Z,99511.81
2022-12-12T07:03:05.099Z,99513.47
2022-12-12T07:05:35.350Z,99518.56
2022-12-12T07:08:03.655Z,99518.53
2022-12-12T07:10:31.873Z,99510.91
2022-12-12T07:13:00.104Z,99527.81
2022-12-12T07:15:28.224Z,99524.50
2022-12-12T07:17:56.420Z,99522.84
2022-12-12T07:20:24.679Z,99525.41
2022-12-12T07:22:54.210Z,99522.88
2022-12-12T07:25:22.396Z,99524.56
2022-12-12T07:27:50.506Z,99533.84
2022-12-12T07:30:18.835Z,99530.47
2022-12-12T07:32:46.965Z,99528.75
2022-12-12T07:35:15.275Z,99533.00
2022-12-12T07:37:43.609Z,99538.09
2022-12-12T07:40:13.581Z,99539.88
2022-12-12T07:42:41.668Z,99544.94
2022-12-12T07:45:16.463Z,99540.69
2022-12-12T07:47:46.368Z,99547.44
2022-12-12T07:50:14.633Z,99553.34
2022-12-12T07:52:42.941Z,99555.88
2022-12-12T07:55:12.925Z,99554.22
2022-12-12T07:57:41.518Z,99560.13
2022-12-12T08:00:13.220Z,99561.03
2022-12-12T08:02:41.647Z,99563.59
2022-12-12T08:05:10.886Z,99561.06
2022-12-12T08:07:39.774Z,99566.16
2022-12-12T08:10:09.595Z,99558.53
2022-12-12T08:12:40.033Z,99555.94
2022-12-12T08:15:11.094Z,99557.59
2022-12-12T08:17:40.155Z,99561.72
2022-12-12T08:20:10.493Z,99559.97
2022-12-12T08:22:40.010Z,99559.00
2022-12-12T08:25:09.849Z,99564.91
2022-12-12T08:27:40.086Z,99567.41
2022-12-12T08:30:10.966Z,99564.78
2022-12-12T08:32:40.792Z,99573.22
2022-12-12T08:35:11.088Z,99572.41
2022-12-12T08:37:40.305Z,99577.56
2022-12-12T08:40:10.943Z,99584.41
2022-12-12T08:42:41.535Z,99579.38
2022-12-12T08:45:11.787Z,99581.94
2022-12-12T08:47:41.382Z,99584.47
2022-12-12T08:50:12.359Z,99594.59
2022-12-12T08:52:41.836Z,99593.69
2022-12-12T08:55:11.469Z,99592.91
2022-12-12T08:57:41.945Z,99590.44
2022-12-12T09:00:12.796Z,99595.53
2022-12-12T09:02:42.158Z,99598.88
2022-12-12T09:05:11.649Z,99603.97
2022-12-12T09:07:40.962Z,99605.56
2022-12-12T09:10:11.507Z,99604.75
2022-12-12T09:12:42.255Z,99606.34
2022-12-12T09:15:14.620Z,99612.09
2022-12-12T09:17:43.788Z,99607.75
2022-12-12T09:20:12.571Z,99606.09
2022-12-12T09:22:41.423Z,99615.50
2022-12-12T09:25:12.051Z,99612.19
2022-12-12T09:27:42.619Z,99609.66
2022-12-12T09:30:12.397Z,99613.84
2022-12-12T09:32:42.075Z,99624.81
2022-12-12T09:35:11.875Z,99614.69
2022-12-12T09:37:40.596Z,99621.53
2022-12-12T09:40:12.374Z,99622.44
2022-12-12T09:42:42.299Z,99614.78
2022-12-12T09:45:11.853Z,99618.19
2022-12-12T09:47:43.322Z,99620.81
2022-12-12T09:50:18.018Z,99608.94
2022-12-12T09:52:46.793Z,99615.66
2022-12-12T09:55:38.552Z,99602.06
2022-12-12T09:58:14.590Z,99597.66
2022-12-12T10:00:46.500Z,99595.78
2022-12-12T10:03:23.654Z,99591.44
2022-12-12T10:06:20.621Z,99594.59
2022-12-12T10:08:49.281Z,99601.19
2022-12-12T10:11:40.288Z,99598.59
2022-12-12T10:14:10.599Z,99595.88
2022-12-12T10:16:38.894Z,99599.28
2022-12-12T10:19:09.798Z,99598.44
2022-12-12T10:21:40.823Z,99606.78
2022-12-12T10:24:16.894Z,99600.91
2022-12-12T10:26:45.173Z,99600.97
2022-12-12T10:29:17.963Z,99595.75
2022-12-12T10:31:50.916Z,99595.81
2022-12-12T10:34:31.106Z,99594.16
2022-12-12T10:37:12.457Z,99590.75
2022-12-12T10:39:48.446Z,99582.03
2022-12-12T10:42:21.085Z,99568.00
2022-12-12T10:45:04.804Z,99572.13
2022-12-12T10:47:33.091Z,99582.16
2022-12-12T10:50:13.140Z,99585.06
2022-12-12T10:52:41.795Z,99584.53
2022-12-12T10:55:18.978Z,99589.47
2022-12-12T10:57:47.567Z,99598.63
2022-12-12T11:00:27.704Z,99597.34
2022-12-12T11:03:00.223Z,99599.00
2022-12-12T11:05:30.761Z,99607.22
2022-12-12T11:08:05.130Z,99606.78
2022-12-12T11:10:34.939Z,99598.50
2022-12-12T11:13:04.573Z,99608.00
2022-12-12T11:15:40.689Z,99586.06
2022-12-12T11:18:15.040Z,99599.72
2022-12-12T11:20:47.728Z,99590.47
2022-12-12T11:23:19.074Z,99589.81
2022-12-12T11:25:47.414Z,99592.47
2022-12-12T11:28:19.135Z,99591.00
2022-12-12T11:30:50.519Z,99603.22
2022-12-12T11:33:20.824Z,99598.38
2022-12-12T11:35:54.826Z,99606.19
2022-12-12T11:38:27.201Z,99606.44
2022-12-12T11:41:00.546Z,99594.69
2022-12-12T11:43:30.614Z,99596.25
2022-12-12T11:46:02.397Z,99585.91
2022-12-12T11:48:35.072Z,99584.09
2022-12-12T11:51:03.733Z,99582.22
2022-12-12T11:53:33.463Z,99589.72
2022-12-12T11:56:17.228Z,99587.94
2022-12-12T11:58:47.880Z,99583.47
2022-12-12T12:01:23.267Z,99587.59
2022-12-12T12:04:31.301Z,99582.75
2022-12-12T12:07:14.807Z,99591.47
2022-12-12T12:09:47.598Z,99585.63
2022-12-12T12:12:18.637Z,99584.75
2022-12-12T12:15:01.449Z,99585.53
2022-12-12T12:17:49.637Z,99572.88
2022-12-12T12:20:22.805Z,99572.88
2022-12-12T12:22:58.213Z,99574.56
2022-12-12T12:25:34.109Z,99566.16
2022-12-12T12:28:24.777Z,99569.53
2022-12-12T12:30:56.309Z,99571.09
2022-12-12T12:33:42.735Z,99561.56
2022-12-12T12:36:21.064Z,99561.53
2022-12-12T12:39:04.959Z,99557.06
2022-12-12T12:41:46.047Z,99558.81
2022-12-12T12:44:29.045Z,99553.78
2022-12-12T12:47:01.920Z,99555.47
2022-12-12T12:49:34.158Z,99562.63
2022-12-12T12:52:05.373Z,99549.13
2022-12-12T12:54:36.594Z,99543.16
2022-12-12T12:57:07.104Z,99540.75
2022-12-12T12:59:38.142Z,99545.22
2022-12-12T13:02:15.354Z,99541.56
2022-12-12T13:04:47.858Z,99541.44
2022-12-12T13:07:21.665Z,99526.72
2022-12-12T13:09:54.710Z,99535.13
2022-12-12T13:12:30.372Z,99519.38
2022-12-12T13:15:01.764Z,99513.50
2022-12-12T13:17:45.718Z,99522.19
2022-12-12T13:20:19.187Z,99524.41
2022-12-12T13:23:03.875Z,99527.28
2022-12-12T13:25:37.487Z,99526.63
2022-12-12T13:28:08.376Z,99518.63
2022-12-12T13:30:45.280Z,99518.63
2022-12-12T13:33:25.032Z,99518.94
2022-12-12T13:36:06.362Z,99514.44
2022-12-12T13:38:35.025Z,99505.78
2022-12-12T13:41:06.265Z,99507.38
2022-12-12T13:43:44.517Z,99505.69
2022-12-12T13:46:39.546Z,99497.13
2022-12-12T13:49:33.427Z,99505.47
2022-12-12T13:52:29.179Z,99504.75
2022-12-12T13:55:22.348Z,99501.81
2022-12-12T13:58:18.911Z,99486.22
2022-12-12T14:00:47.128Z,99494.09
2022-12-12T14:03:30.012Z,99486.84
2022-12-12T14:06:11.228Z,99485.72
2022-12-12T14:08:48.567Z,99495.00
2022-12-12T14:11:28.691Z,99491.44
2022-12-12T14:14:08.708Z,99492.91
2022-12-12T14:16:37.146Z,99486.63
2022-12-12T14:19:07.952Z,99481.56
2022-12-12T14:21:43.031Z,99478.63
2022-12-12T14:24:59.509Z,99481.41
2022-12-12T14:28:03.272Z,99483.78
2022-12-12T14:30:44.259Z,99475.28
2022-12-12T14:33:46.414Z,99490.16
2022-12-12T14:36:54.963Z,99493.22
2022-12-12T14:39:59.605Z,99487.81
2022-12-12T14:43:15.418Z,99484.06
2022-12-12T14:45:36.190Z,99484.22
2022-12-12T14:48:22.517Z,99488.53
2022-12-12T14:50:57.302Z,99499.06
2022-12-12T14:53:26.311Z,99498.78
2022-12-12T14:55:58.048Z,99499.28
2022-12-12T14:58:28.244Z,99509.72
2022-12-12T15:00:58.486Z,99505.78
2022-12-12T15:03:31.581Z,99501.09
2022-12-12T15:06:37.578Z,99503.66
2022-12-12T15:09:34.309Z,99511.63
2022-12-12T15:12:16.824Z,99515.53
2022-12-12T15:14:54.828Z,99524.44
2022-12-12T15:17:26.533Z,99525.63
2022-12-12T15:19:56.371Z,99526.84
2022-12-12T15:22:26.024Z,99534.84
2022-12-12T15:24:54.819Z,99527.22
2022-12-12T15:27:28.575Z,99532.31
2022-12-12T15:29:56.776Z,99527.06
2022-12-12T15:32:25.513Z,99522.66
2022-12-12T15:35:06.024Z,99528.66
2022-12-12T15:37:35.707Z,99537.94
2022-12-12T15:40:19.996Z,99537.72
2022-12-12T15:42:55.204Z,99545.00
2022-12-12T15:45:26.929Z,99534.34
2022-12-12T15:47:55.256Z,99534.66
2022-12-12T15:50:25.363Z,99533.09
2022-12-12T15:53:03.503Z,99529.91
2022-12-12T15:55:31.738Z,99530.03
2022-12-12T15:58:01.522Z,99526.84
2022-12-12T16:00:39.678Z,99520.25
2022-12-12T16:03:21.846Z,99516.16
2022-12-12T16:06:05.829Z,99510.44
2022-12-12T16:08:40.080Z,99508.09
2022-12-12T16:11:41.834Z,99516.63
2022-12-12T16:14:38.604Z,99526.09
2022-12-12T16:17:09.833Z,99538.84
2022-12-12T16:19:47.186Z,99544.88
2022-12-12T16:22:22.370Z,99546.66
2022-12-12T16:24:52.523Z,99545.84
2022-12-12T16:27:20.662Z,99549.31
2022-12-12T16:29:50.151Z,99551.97
2022-12-12T16:32:24.277Z,99556.31
2022-12-12T16:34:54.054Z,99559.81
2022-12-12T16:37:22.267Z,99570.88
2022-12-12T16:39:50.371Z,99559.97
2022-12-12T16:42:19.802Z,99570.09
2022-12-12T16:44:49.505Z,99562.50
2022-12-12T16:47:18.794Z,99568.41
2022-12-12T16:49:46.978Z,99568.41
2022-12-12T16:52:15.555Z,99559.19
2022-12-12T16:54:47.005Z,99560.91
2022-12-12T16:57:17.646Z,99571.97
2022-12-12T16:59:45.817Z,99572.00
2022-12-12T17:02:20.336Z,99580.44
2022-12-12T17:04:48.659Z,99572.03
2022-12-12T17:07:16.812Z,99577.06
2022-12-12T17:09:45.129Z,99574.53
2022-12-12T17:12:13.412Z,99568.63
2022-12-12T17:14:41.616Z,99571.22
2022-12-12T17:17:09.695Z,99566.13
2022-12-12T17:19:39.302Z,99570.41
2022-12-12T17:22:07.433Z,99568.81
2022-12-12T17:24:35.567Z,99567.19
2022-12-12T17:27:03.695Z,99567.22
2022-12-12T17:29:32.365Z,99565.56
2022-12-12T17:32:00.522Z,99567.28
2022-12-12T17:34:28.655Z,99569.84
2022-12-12T17:36:58.145Z,99568.16
2022-12-12T17:39:26.325Z,99568.22
2022-12-12T17:41:54.414Z,99570.78
2022-12-12T17:44:23.744Z,99573.34
2022-12-12T17:46:51.840Z,99571.69
2022-12-12T17:49:19.976Z,99568.31
2022-12-12T17:51:48.088Z,99573.41
2022-12-12T17:54:17.614Z,99575.97
2022-12-12T17:56:45.753Z,99575.13
2022-12-12T17:59:13.880Z,99579.38
2022-12-12T18:01:42.190Z,99589.50
2022-12-12T18:04:10.366Z,99585.31
2022-12-12T18:06:38.795Z,99577.72
2022-12-12T18:09:06.991Z,99578.59
2022-12-12T18:11:38.234Z,99578.63
2022-12-12T18:14:07.961Z,99570.16
2022-12-12T18:16:36.618Z,99576.09
2022-12-12T18:19:04.837Z,99581.19
2022-12-12T18:21:59.694Z,99569.38
2022-12-12T18:24:24.106Z,99580.34
2022-12-12T18:26:54.454Z,99581.22
2022-12-12T18:29:22.797Z,99568.53
2022-12-12T18:31:51.203Z,99566.81
2022-12-12T18:34:19.518Z,99568.53
2022-12-12T18:36:48.072Z,99565.13
2022-12-12T18:39:16.235Z,99566.00
2022-12-12T18:41:44.416Z,99562.59
2022-12-12T18:44:15.290Z,99565.13
2022-12-12T18:46:44.071Z,99559.25
2022-12-12T18:49:14.920Z,99565.13
2022-12-12T18:51:43.378Z,99564.25
2022-12-12T18:54:15.535Z,99569.31
2022-12-12T18:56:45.822Z,99572.69
2022-12-12T18:59:15.934Z,99560.09
2022-12-12T19:01:44.514Z,99562.66
2022-12-12T19:04:17.456Z,99566.03
2022-12-12T19:06:49.454Z,99566.06
2022-12-12T19:09:18.575Z,99572.84
2022-12-12T19:11:47.125Z,99572.88
2022-12-12T19:14:17.026Z,99581.25
2022-12-12T19:16:45.563Z,99582.97
2022-12-12T19:19:14.048Z,99586.34
2022-12-12T19:21:42.504Z,99591.41
2022-12-12T19:24:12.211Z,99583.81
2022-12-12T19:26:41.153Z,99585.50
2022-12-12T19:29:11.761Z,99575.41
2022-12-12T19:31:41.577Z,99571.22
2022-12-12T19:34:11.397Z,99565.31
2022-12-12T19:36:39.591Z,99564.47
2022-12-12T19:39:08.434Z,99560.25
2022-12-12T19:41:37.023Z,99572.06
2022-12-12T19:44:08.590Z,99567.81
2022-12-12T19:46:36.864Z,99575.41
2022-12-12T19:49:08.491Z,99560.22
2022-12-12T19:51:39.103Z,99564.41
2022-12-12T19:54:08.900Z,99564.38
2022-12-12T19:56:38.010Z,99561.84
2022-12-12T19:59:06.113Z,99568.59
2022-12-12T20:01:35.955Z,99562.66
2022-12-12T20:04:07.611Z,99558.41
2022-12-12T20:06:41.178Z,99561.78
2022-12-12T20:09:10.155Z,99566.81
2022-12-12T20:11:39.926Z,99561.78
2022-12-12T20:14:08.077Z,99565.09
2022-12-12T20:16:36.219Z,99571.00
2022-12-12T20:19:05.983Z,99569.31
2022-12-12T20:24:23.786Z,99567.63
2022-12-12T20:26:52.043Z,99561.72
2022-12-12T20:29:21.591Z,99565.09
2022-12-12T20:31:49.849Z,99563.38
2022-12-12T20:34:22.473Z,99562.56
2022-12-12T20:36:50.925Z,99568.47
2022-12-12T20:39:22.402Z,99565.09
2022-12-12T20:41:51.038Z,99568.50
2022-12-12T20:44:19.184Z,99564.25
2022-12-12T20:46:47.708Z,99567.66
2022-12-12T20:49:18.060Z,99561.75
2022-12-12T20:51:56.956Z,99567.66
2022-12-12T20:54:26.143Z,99560.03
2022-12-12T20:56:54.501Z,99554.16
2022-12-12T20:59:23.476Z,99554.19
2022-12-12T21:01:51.673Z,99550.81
2022-12-12T21:04:38.607Z,99554.19
2022-12-12T21:07:28.609Z,99543.22
2022-12-12T21:10:17.269Z,99544.94
2022-12-12T21:13:05.731Z,99539.88
2022-12-12T21:15:54.236Z,99541.56
2022-12-12T21:18:42.884Z,99542.44
2022-12-12T21:21:31.532Z,99539.91
2022-12-12T21:24:21.618Z,99544.16
2022-12-12T21:27:10.067Z,99534.84
2022-12-12T21:29:58.547Z,99540.78
2022-12-12T21:32:47.084Z,99542.47
2022-12-12T21:35:35.704Z,99539.94
2022-12-12T21:38:24.121Z,99541.59
2022-12-12T21:41:16.631Z,99541.63
2022-12-12T21:44:06.393Z,99531.50
2022-12-12T21:46:55.515Z,99539.09
2022-12-12T21:49:47.122Z,99541.63
2022-12-12T21:52:35.535Z,99544.16
2022-12-12T21:55:23.967Z,99528.16
2022-12-12T21:58:13.765Z,99529.84
2022-12-12T22:01:07.271Z,99531.50
2022-12-12T22:03:55.860Z,99528.13
2022-12-12T22:06:45.316Z,99536.56
2022-12-12T22:09:33.732Z,99532.38
2022-12-12T22:12:22.275Z,99532.34
2022-12-12T22:15:12.912Z,99530.69
2022-12-12T22:18:01.710Z,99525.66
2022-12-12T22:20:51.021Z,99521.44
2022-12-12T22:23:39.934Z,99526.50
2022-12-12T22:26:30.045Z,99536.59
2022-12-12T22:29:20.045Z,99533.25
2022-12-12T22:32:09.843Z,99530.75
2022-12-12T22:34:59.218Z,99536.63
2022-12-12T22:37:47.589Z,99525.69
2022-12-12T22:40:35.992Z,99528.22
2022-12-12T22:43:24.398Z,99520.63
2022-12-12T22:46:14.037Z,99530.75
2022-12-12T22:49:03.855Z,99528.19
2022-12-12T22:51:52.497Z,99511.34
2022-12-12T22:54:40.987Z,99513.91
2022-12-12T22:57:29.504Z,99519.81
2022-12-12T23:00:19.252Z,99520.66
2022-12-12T23:03:07.993Z,99522.34
2022-12-12T23:06:03.057Z,99518.16
2022-12-12T23:08:52.363Z,99508.03
2022-12-12T23:11:40.774Z,99513.09
2022-12-12T23:14:29.228Z,99507.19
2022-12-12T23:17:17.707Z,99512.22
2022-12-12T23:20:07.883Z,99513.06
2022-12-12T23:22:57.686Z,99517.28
2022-12-12T23:25:46.078Z,99508.00
2022-12-12T23:28:35.250Z,99508.84
2022-12-12T23:31:25.228Z,99502.97
2022-12-12T23:34:15.960Z,99511.38
2022-12-12T23:37:04.711Z,99510.56
2022-12-12T23:39:54.579Z,99506.34
2022-12-12T23:42:43.021Z,99505.50
2022-12-12T23:45:31.502Z,99500.44
2022-12-12T23:48:20.112Z,99501.28
2022-12-12T23:51:08.730Z,99496.22
2022-12-12T23:53:57.533Z,99495.38
2022-12-12T23:56:47.501Z,99488.66
2022-12-12T23:59:35.862Z,99481.94
